<?xml version="1.0" encoding="UTF-8" standalone="no" ?>
<gpx xmlns="http://www.topografix.com/GPX/1/1" xmlns:xsi="http://www.w3.org/2001/XMLSchema-instance" xsi:schemaLocation="http://www.topografix.com/GPX/1/1 http://www.topografix.com/GPX/1/1/gpx.xsd" version="1.1" creator="VisuGPX - https://www.visugpx.com">
  <metadata>
    <name>46 - Porte-du-Quercy : boucles au départ du Domaine des Terres Blanches</name>
    <desc><![CDATA[Cet itinéraire fait partie de la collection de EquiLiberté : www.equiliberte.org Circuit NON ACCESSIBLE aux attelages
Ces circuits ont été élaborés par le gîte équestre Domaine des Terres Blanches https://domainedesterresblanches.com/]]></desc>
  </metadata>
  <wpt lat="44.41706" lon="1.15834">
    <ele>172</ele>
    <name><![CDATA[Domaine des Terres Blanches]]></name>
    <type><![CDATA[hotel]]></type>
  </wpt>
  <trk>
    <name><![CDATA[46 - Porte-du-Quercy : Les Terres Blanches : boucle sud-ouest 29 km]]></name>
    <trkseg>
      <trkpt lat="44.41668" lon="1.15844">
        <ele>173</ele>
        <time>2021-01-20T18:26:54Z</time>
      </trkpt>
      <trkpt lat="44.41579" lon="1.1544">
        <ele>191</ele>
        <time>2021-01-20T18:30:56Z</time>
      </trkpt>
      <trkpt lat="44.41429" lon="1.15144">
        <ele>177</ele>
        <time>2021-01-20T18:34:23Z</time>
      </trkpt>
      <trkpt lat="44.41441" lon="1.1505">
        <ele>178</ele>
        <time>2021-01-20T18:35:18Z</time>
      </trkpt>
      <trkpt lat="44.41481" lon="1.14998">
        <ele>178</ele>
        <time>2021-01-20T18:36:02Z</time>
      </trkpt>
      <trkpt lat="44.4149" lon="1.14985">
        <ele>178</ele>
        <time>2021-01-20T18:36:12Z</time>
      </trkpt>
      <trkpt lat="44.41511" lon="1.14951">
        <ele>177</ele>
        <time>2021-01-20T18:36:38Z</time>
      </trkpt>
      <trkpt lat="44.41487" lon="1.14908">
        <ele>180</ele>
        <time>2021-01-20T18:37:09Z</time>
      </trkpt>
      <trkpt lat="44.41453" lon="1.14784">
        <ele>177</ele>
        <time>2021-01-20T18:38:25Z</time>
      </trkpt>
      <trkpt lat="44.41435" lon="1.14711">
        <ele>176</ele>
        <time>2021-01-20T18:39:09Z</time>
      </trkpt>
      <trkpt lat="44.41386" lon="1.14552">
        <ele>170</ele>
        <time>2021-01-20T18:40:48Z</time>
      </trkpt>
      <trkpt lat="44.41263" lon="1.145">
        <ele>170</ele>
        <time>2021-01-20T18:42:31Z</time>
      </trkpt>
      <trkpt lat="44.4119" lon="1.14526">
        <ele>169</ele>
        <time>2021-01-20T18:43:31Z</time>
      </trkpt>
      <trkpt lat="44.41125" lon="1.14543">
        <ele>168</ele>
        <time>2021-01-20T18:44:24Z</time>
      </trkpt>
      <trkpt lat="44.41107" lon="1.14427">
        <ele>162</ele>
        <time>2021-01-20T18:45:32Z</time>
      </trkpt>
      <trkpt lat="44.41027" lon="1.14337">
        <ele>164</ele>
        <time>2021-01-20T18:46:54Z</time>
      </trkpt>
      <trkpt lat="44.40996" lon="1.14217">
        <ele>170</ele>
        <time>2021-01-20T18:48:07Z</time>
      </trkpt>
      <trkpt lat="44.40886" lon="1.14131">
        <ele>181</ele>
        <time>2021-01-20T18:49:48Z</time>
      </trkpt>
      <trkpt lat="44.40904" lon="1.1405">
        <ele>187</ele>
        <time>2021-01-20T18:50:37Z</time>
      </trkpt>
      <trkpt lat="44.40878" lon="1.13922">
        <ele>206</ele>
        <time>2021-01-20T18:51:53Z</time>
      </trkpt>
      <trkpt lat="44.40779" lon="1.13882">
        <ele>208</ele>
        <time>2021-01-20T18:53:15Z</time>
      </trkpt>
      <trkpt lat="44.40808" lon="1.13683">
        <ele>193</ele>
        <time>2021-01-20T18:55:11Z</time>
      </trkpt>
      <trkpt lat="44.4079" lon="1.13535">
        <ele>214</ele>
        <time>2021-01-20T18:56:37Z</time>
      </trkpt>
      <trkpt lat="44.40688" lon="1.13514">
        <ele>242</ele>
        <time>2021-01-20T18:58:00Z</time>
      </trkpt>
      <trkpt lat="44.40674" lon="1.13458">
        <ele>255</ele>
        <time>2021-01-20T18:58:34Z</time>
      </trkpt>
      <trkpt lat="44.4067" lon="1.13387">
        <ele>262</ele>
        <time>2021-01-20T18:59:15Z</time>
      </trkpt>
      <trkpt lat="44.4067" lon="1.1331">
        <ele>262</ele>
        <time>2021-01-20T18:59:59Z</time>
      </trkpt>
      <trkpt lat="44.40681" lon="1.13279">
        <ele>261</ele>
        <time>2021-01-20T19:00:18Z</time>
      </trkpt>
      <trkpt lat="44.40657" lon="1.13223">
        <ele>258</ele>
        <time>2021-01-20T19:00:56Z</time>
      </trkpt>
      <trkpt lat="44.40609" lon="1.13223">
        <ele>258</ele>
        <time>2021-01-20T19:01:34Z</time>
      </trkpt>
      <trkpt lat="44.4056" lon="1.13217">
        <ele>257</ele>
        <time>2021-01-20T19:02:14Z</time>
      </trkpt>
      <trkpt lat="44.40497" lon="1.13198">
        <ele>255</ele>
        <time>2021-01-20T19:03:05Z</time>
      </trkpt>
      <trkpt lat="44.40469" lon="1.13171">
        <ele>255</ele>
        <time>2021-01-20T19:03:32Z</time>
      </trkpt>
      <trkpt lat="44.40588" lon="1.13113">
        <ele>251</ele>
        <time>2021-01-20T19:05:13Z</time>
      </trkpt>
      <trkpt lat="44.40646" lon="1.13056">
        <ele>245</ele>
        <time>2021-01-20T19:06:10Z</time>
      </trkpt>
      <trkpt lat="44.40759" lon="1.13059">
        <ele>233</ele>
        <time>2021-01-20T19:07:41Z</time>
      </trkpt>
      <trkpt lat="44.40878" lon="1.12904">
        <ele>223</ele>
        <time>2021-01-20T19:09:51Z</time>
      </trkpt>
      <trkpt lat="44.40935" lon="1.12798">
        <ele>209</ele>
        <time>2021-01-20T19:11:07Z</time>
      </trkpt>
      <trkpt lat="44.41063" lon="1.12774">
        <ele>200</ele>
        <time>2021-01-20T19:12:50Z</time>
      </trkpt>
      <trkpt lat="44.41151" lon="1.12767">
        <ele>193</ele>
        <time>2021-01-20T19:14:01Z</time>
      </trkpt>
      <trkpt lat="44.4129" lon="1.12707">
        <ele>190</ele>
        <time>2021-01-20T19:15:57Z</time>
      </trkpt>
      <trkpt lat="44.4134" lon="1.12625">
        <ele>189</ele>
        <time>2021-01-20T19:16:59Z</time>
      </trkpt>
      <trkpt lat="44.4134" lon="1.12516">
        <ele>189</ele>
        <time>2021-01-20T19:18:01Z</time>
      </trkpt>
      <trkpt lat="44.41394" lon="1.12506">
        <ele>185</ele>
        <time>2021-01-20T19:18:45Z</time>
      </trkpt>
      <trkpt lat="44.41448" lon="1.12485">
        <ele>180</ele>
        <time>2021-01-20T19:19:30Z</time>
      </trkpt>
      <trkpt lat="44.4152" lon="1.12412">
        <ele>176</ele>
        <time>2021-01-20T19:20:41Z</time>
      </trkpt>
      <trkpt lat="44.41533" lon="1.12318">
        <ele>174</ele>
        <time>2021-01-20T19:21:35Z</time>
      </trkpt>
      <trkpt lat="44.41533" lon="1.12255">
        <ele>170</ele>
        <time>2021-01-20T19:22:11Z</time>
      </trkpt>
      <trkpt lat="44.41529" lon="1.12198">
        <ele>166</ele>
        <time>2021-01-20T19:22:44Z</time>
      </trkpt>
      <trkpt lat="44.41565" lon="1.12164">
        <ele>164</ele>
        <time>2021-01-20T19:23:19Z</time>
      </trkpt>
      <trkpt lat="44.41635" lon="1.12039">
        <ele>160</ele>
        <time>2021-01-20T19:24:50Z</time>
      </trkpt>
      <trkpt lat="44.41713" lon="1.11894">
        <ele>163</ele>
        <time>2021-01-20T19:26:34Z</time>
      </trkpt>
      <trkpt lat="44.41652" lon="1.11781">
        <ele>157</ele>
        <time>2021-01-20T19:27:55Z</time>
      </trkpt>
      <trkpt lat="44.41594" lon="1.11699">
        <ele>163</ele>
        <time>2021-01-20T19:29:01Z</time>
      </trkpt>
      <trkpt lat="44.41555" lon="1.11666">
        <ele>167</ele>
        <time>2021-01-20T19:29:37Z</time>
      </trkpt>
      <trkpt lat="44.415" lon="1.11566">
        <ele>170</ele>
        <time>2021-01-20T19:30:49Z</time>
      </trkpt>
      <trkpt lat="44.41448" lon="1.11463">
        <ele>176</ele>
        <time>2021-01-20T19:32:01Z</time>
      </trkpt>
      <trkpt lat="44.41373" lon="1.11344">
        <ele>188</ele>
        <time>2021-01-20T19:33:32Z</time>
      </trkpt>
      <trkpt lat="44.41377" lon="1.11244">
        <ele>185</ele>
        <time>2021-01-20T19:34:30Z</time>
      </trkpt>
      <trkpt lat="44.41472" lon="1.11174">
        <ele>177</ele>
        <time>2021-01-20T19:35:55Z</time>
      </trkpt>
      <trkpt lat="44.41433" lon="1.11126">
        <ele>180</ele>
        <time>2021-01-20T19:36:37Z</time>
      </trkpt>
      <trkpt lat="44.41375" lon="1.11047">
        <ele>186</ele>
        <time>2021-01-20T19:37:42Z</time>
      </trkpt>
      <trkpt lat="44.41334" lon="1.10847">
        <ele>196</ele>
        <time>2021-01-20T19:39:41Z</time>
      </trkpt>
      <trkpt lat="44.41264" lon="1.10753">
        <ele>205</ele>
        <time>2021-01-20T19:40:59Z</time>
      </trkpt>
      <trkpt lat="44.4118" lon="1.10689">
        <ele>219</ele>
        <time>2021-01-20T19:42:15Z</time>
      </trkpt>
      <trkpt lat="44.41076" lon="1.10722">
        <ele>232</ele>
        <time>2021-01-20T19:43:40Z</time>
      </trkpt>
      <trkpt lat="44.41024" lon="1.10777">
        <ele>239</ele>
        <time>2021-01-20T19:44:33Z</time>
      </trkpt>
      <trkpt lat="44.40995" lon="1.10877">
        <ele>240</ele>
        <time>2021-01-20T19:45:34Z</time>
      </trkpt>
      <trkpt lat="44.40995" lon="1.10935">
        <ele>240</ele>
        <time>2021-01-20T19:46:08Z</time>
      </trkpt>
      <trkpt lat="44.41004" lon="1.10965">
        <ele>240</ele>
        <time>2021-01-20T19:46:26Z</time>
      </trkpt>
      <trkpt lat="44.41021" lon="1.11095">
        <ele>240</ele>
        <time>2021-01-20T19:47:42Z</time>
      </trkpt>
      <trkpt lat="44.41002" lon="1.11171">
        <ele>242</ele>
        <time>2021-01-20T19:48:28Z</time>
      </trkpt>
      <trkpt lat="44.40974" lon="1.11293">
        <ele>245</ele>
        <time>2021-01-20T19:49:41Z</time>
      </trkpt>
      <trkpt lat="44.40928" lon="1.11399">
        <ele>248</ele>
        <time>2021-01-20T19:50:52Z</time>
      </trkpt>
      <trkpt lat="44.4088" lon="1.11475">
        <ele>247</ele>
        <time>2021-01-20T19:51:50Z</time>
      </trkpt>
      <trkpt lat="44.40854" lon="1.11541">
        <ele>246</ele>
        <time>2021-01-20T19:52:33Z</time>
      </trkpt>
      <trkpt lat="44.40809" lon="1.11578">
        <ele>248</ele>
        <time>2021-01-20T19:53:15Z</time>
      </trkpt>
      <trkpt lat="44.40755" lon="1.11629">
        <ele>250</ele>
        <time>2021-01-20T19:54:07Z</time>
      </trkpt>
      <trkpt lat="44.4072" lon="1.11678">
        <ele>251</ele>
        <time>2021-01-20T19:54:47Z</time>
      </trkpt>
      <trkpt lat="44.40679" lon="1.11702">
        <ele>251</ele>
        <time>2021-01-20T19:55:22Z</time>
      </trkpt>
      <trkpt lat="44.40625" lon="1.11781">
        <ele>254</ele>
        <time>2021-01-20T19:56:25Z</time>
      </trkpt>
      <trkpt lat="44.40573" lon="1.11836">
        <ele>257</ele>
        <time>2021-01-20T19:57:17Z</time>
      </trkpt>
      <trkpt lat="44.40542" lon="1.11875">
        <ele>258</ele>
        <time>2021-01-20T19:57:50Z</time>
      </trkpt>
      <trkpt lat="44.40486" lon="1.11833">
        <ele>256</ele>
        <time>2021-01-20T19:58:41Z</time>
      </trkpt>
      <trkpt lat="44.40414" lon="1.11793">
        <ele>250</ele>
        <time>2021-01-20T19:59:43Z</time>
      </trkpt>
      <trkpt lat="44.40341" lon="1.11751">
        <ele>247</ele>
        <time>2021-01-20T20:00:47Z</time>
      </trkpt>
      <trkpt lat="44.40278" lon="1.11754">
        <ele>250</ele>
        <time>2021-01-20T20:01:37Z</time>
      </trkpt>
      <trkpt lat="44.40228" lon="1.11781">
        <ele>251</ele>
        <time>2021-01-20T20:02:20Z</time>
      </trkpt>
      <trkpt lat="44.40176" lon="1.11766">
        <ele>257</ele>
        <time>2021-01-20T20:03:02Z</time>
      </trkpt>
      <trkpt lat="44.4015" lon="1.11754">
        <ele>258</ele>
        <time>2021-01-20T20:03:24Z</time>
      </trkpt>
      <trkpt lat="44.40163" lon="1.1169">
        <ele>257</ele>
        <time>2021-01-20T20:04:02Z</time>
      </trkpt>
      <trkpt lat="44.40159" lon="1.11496">
        <ele>256</ele>
        <time>2021-01-20T20:05:53Z</time>
      </trkpt>
      <trkpt lat="44.40191" lon="1.11247">
        <ele>246</ele>
        <time>2021-01-20T20:08:18Z</time>
      </trkpt>
      <trkpt lat="44.40286" lon="1.1095">
        <ele>244</ele>
        <time>2021-01-20T20:11:24Z</time>
      </trkpt>
      <trkpt lat="44.40378" lon="1.10841">
        <ele>244</ele>
        <time>2021-01-20T20:13:01Z</time>
      </trkpt>
      <trkpt lat="44.40521" lon="1.10567">
        <ele>239</ele>
        <time>2021-01-20T20:16:15Z</time>
      </trkpt>
      <trkpt lat="44.40612" lon="1.1027">
        <ele>243</ele>
        <time>2021-01-20T20:19:20Z</time>
      </trkpt>
      <trkpt lat="44.40651" lon="1.10048">
        <ele>246</ele>
        <time>2021-01-20T20:21:31Z</time>
      </trkpt>
      <trkpt lat="44.4069" lon="1.09839">
        <ele>244</ele>
        <time>2021-01-20T20:23:34Z</time>
      </trkpt>
      <trkpt lat="44.40517" lon="1.09937">
        <ele>247</ele>
        <time>2021-01-20T20:26:03Z</time>
      </trkpt>
      <trkpt lat="44.40393" lon="1.10008">
        <ele>245</ele>
        <time>2021-01-20T20:27:51Z</time>
      </trkpt>
      <trkpt lat="44.40316" lon="1.09998">
        <ele>243</ele>
        <time>2021-01-20T20:28:53Z</time>
      </trkpt>
      <trkpt lat="44.40254" lon="1.10095">
        <ele>248</ele>
        <time>2021-01-20T20:30:07Z</time>
      </trkpt>
      <trkpt lat="44.40159" lon="1.10171">
        <ele>250</ele>
        <time>2021-01-20T20:31:35Z</time>
      </trkpt>
      <trkpt lat="44.40057" lon="1.10253">
        <ele>258</ele>
        <time>2021-01-20T20:33:09Z</time>
      </trkpt>
      <trkpt lat="44.39912" lon="1.10345">
        <ele>256</ele>
        <time>2021-01-20T20:35:16Z</time>
      </trkpt>
      <trkpt lat="44.39795" lon="1.10375">
        <ele>260</ele>
        <time>2021-01-20T20:36:52Z</time>
      </trkpt>
      <trkpt lat="44.3962" lon="1.10381">
        <ele>261</ele>
        <time>2021-01-20T20:39:12Z</time>
      </trkpt>
      <trkpt lat="44.39572" lon="1.10396">
        <ele>261</ele>
        <time>2021-01-20T20:39:51Z</time>
      </trkpt>
      <trkpt lat="44.39529" lon="1.10437">
        <ele>260</ele>
        <time>2021-01-20T20:40:33Z</time>
      </trkpt>
      <trkpt lat="44.39502" lon="1.1044">
        <ele>260</ele>
        <time>2021-01-20T20:40:55Z</time>
      </trkpt>
      <trkpt lat="44.39471" lon="1.10422">
        <ele>259</ele>
        <time>2021-01-20T20:41:21Z</time>
      </trkpt>
      <trkpt lat="44.39411" lon="1.1041">
        <ele>255</ele>
        <time>2021-01-20T20:42:10Z</time>
      </trkpt>
      <trkpt lat="44.39367" lon="1.10437">
        <ele>247</ele>
        <time>2021-01-20T20:42:48Z</time>
      </trkpt>
      <trkpt lat="44.39337" lon="1.10434">
        <ele>242</ele>
        <time>2021-01-20T20:43:12Z</time>
      </trkpt>
      <trkpt lat="44.39348" lon="1.10382">
        <ele>243</ele>
        <time>2021-01-20T20:43:44Z</time>
      </trkpt>
      <trkpt lat="44.39335" lon="1.10355">
        <ele>241</ele>
        <time>2021-01-20T20:44:02Z</time>
      </trkpt>
      <trkpt lat="44.39311" lon="1.1034">
        <ele>236</ele>
        <time>2021-01-20T20:44:23Z</time>
      </trkpt>
      <trkpt lat="44.39291" lon="1.10273">
        <ele>237</ele>
        <time>2021-01-20T20:45:05Z</time>
      </trkpt>
      <trkpt lat="44.39252" lon="1.1024">
        <ele>231</ele>
        <time>2021-01-20T20:45:41Z</time>
      </trkpt>
      <trkpt lat="44.39228" lon="1.10215">
        <ele>229</ele>
        <time>2021-01-20T20:46:05Z</time>
      </trkpt>
      <trkpt lat="44.39207" lon="1.102">
        <ele>227</ele>
        <time>2021-01-20T20:46:24Z</time>
      </trkpt>
      <trkpt lat="44.39172" lon="1.10136">
        <ele>221</ele>
        <time>2021-01-20T20:47:10Z</time>
      </trkpt>
      <trkpt lat="44.39148" lon="1.10085">
        <ele>223</ele>
        <time>2021-01-20T20:47:45Z</time>
      </trkpt>
      <trkpt lat="44.39131" lon="1.10018">
        <ele>224</ele>
        <time>2021-01-20T20:48:26Z</time>
      </trkpt>
      <trkpt lat="44.39051" lon="1.09706">
        <ele>218</ele>
        <time>2021-01-20T20:51:35Z</time>
      </trkpt>
      <trkpt lat="44.39009" lon="1.09593">
        <ele>213</ele>
        <time>2021-01-20T20:52:48Z</time>
      </trkpt>
      <trkpt lat="44.3897" lon="1.09505">
        <ele>214</ele>
        <time>2021-01-20T20:53:48Z</time>
      </trkpt>
      <trkpt lat="44.38892" lon="1.09396">
        <ele>208</ele>
        <time>2021-01-20T20:55:16Z</time>
      </trkpt>
      <trkpt lat="44.38855" lon="1.0932">
        <ele>209</ele>
        <time>2021-01-20T20:56:08Z</time>
      </trkpt>
      <trkpt lat="44.38829" lon="1.09281">
        <ele>208</ele>
        <time>2021-01-20T20:56:39Z</time>
      </trkpt>
      <trkpt lat="44.38764" lon="1.09272">
        <ele>206</ele>
        <time>2021-01-20T20:57:31Z</time>
      </trkpt>
      <trkpt lat="44.38721" lon="1.09235">
        <ele>207</ele>
        <time>2021-01-20T20:58:12Z</time>
      </trkpt>
      <trkpt lat="44.38699" lon="1.09184">
        <ele>205</ele>
        <time>2021-01-20T20:58:46Z</time>
      </trkpt>
      <trkpt lat="44.38645" lon="1.0909">
        <ele>200</ele>
        <time>2021-01-20T20:59:55Z</time>
      </trkpt>
      <trkpt lat="44.38599" lon="1.09026">
        <ele>198</ele>
        <time>2021-01-20T21:00:47Z</time>
      </trkpt>
      <trkpt lat="44.38556" lon="1.08941">
        <ele>202</ele>
        <time>2021-01-20T21:01:46Z</time>
      </trkpt>
      <trkpt lat="44.38511" lon="1.08883">
        <ele>201</ele>
        <time>2021-01-20T21:02:35Z</time>
      </trkpt>
      <trkpt lat="44.38485" lon="1.08826">
        <ele>200</ele>
        <time>2021-01-20T21:03:14Z</time>
      </trkpt>
      <trkpt lat="44.38452" lon="1.08741">
        <ele>200</ele>
        <time>2021-01-20T21:04:09Z</time>
      </trkpt>
      <trkpt lat="44.38409" lon="1.08674">
        <ele>195</ele>
        <time>2021-01-20T21:05:01Z</time>
      </trkpt>
      <trkpt lat="44.3838" lon="1.0858">
        <ele>196</ele>
        <time>2021-01-20T21:05:59Z</time>
      </trkpt>
      <trkpt lat="44.38348" lon="1.0854">
        <ele>196</ele>
        <time>2021-01-20T21:06:34Z</time>
      </trkpt>
      <trkpt lat="44.38305" lon="1.08495">
        <ele>194</ele>
        <time>2021-01-20T21:07:17Z</time>
      </trkpt>
      <trkpt lat="44.38257" lon="1.08492">
        <ele>189</ele>
        <time>2021-01-20T21:07:55Z</time>
      </trkpt>
      <trkpt lat="44.38213" lon="1.08483">
        <ele>187</ele>
        <time>2021-01-20T21:08:31Z</time>
      </trkpt>
      <trkpt lat="44.38179" lon="1.08471">
        <ele>186</ele>
        <time>2021-01-20T21:08:59Z</time>
      </trkpt>
      <trkpt lat="44.38125" lon="1.0844">
        <ele>185</ele>
        <time>2021-01-20T21:09:46Z</time>
      </trkpt>
      <trkpt lat="44.38072" lon="1.08507">
        <ele>186</ele>
        <time>2021-01-20T21:10:43Z</time>
      </trkpt>
      <trkpt lat="44.38088" lon="1.08613">
        <ele>186</ele>
        <time>2021-01-20T21:11:45Z</time>
      </trkpt>
      <trkpt lat="44.38109" lon="1.08807">
        <ele>190</ele>
        <time>2021-01-20T21:13:37Z</time>
      </trkpt>
      <trkpt lat="44.38064" lon="1.08832">
        <ele>191</ele>
        <time>2021-01-20T21:14:16Z</time>
      </trkpt>
      <trkpt lat="44.38003" lon="1.08865">
        <ele>195</ele>
        <time>2021-01-20T21:15:08Z</time>
      </trkpt>
      <trkpt lat="44.37962" lon="1.08871">
        <ele>200</ele>
        <time>2021-01-20T21:15:41Z</time>
      </trkpt>
      <trkpt lat="44.37925" lon="1.08892">
        <ele>203</ele>
        <time>2021-01-20T21:16:13Z</time>
      </trkpt>
      <trkpt lat="44.3789" lon="1.0892">
        <ele>205</ele>
        <time>2021-01-20T21:16:46Z</time>
      </trkpt>
      <trkpt lat="44.37858" lon="1.08941">
        <ele>209</ele>
        <time>2021-01-20T21:17:14Z</time>
      </trkpt>
      <trkpt lat="44.37849" lon="1.08795">
        <ele>231</ele>
        <time>2021-01-20T21:18:38Z</time>
      </trkpt>
      <trkpt lat="44.37821" lon="1.08713">
        <ele>241</ele>
        <time>2021-01-20T21:19:30Z</time>
      </trkpt>
      <trkpt lat="44.37793" lon="1.0865">
        <ele>241</ele>
        <time>2021-01-20T21:20:12Z</time>
      </trkpt>
      <trkpt lat="44.37751" lon="1.08613">
        <ele>239</ele>
        <time>2021-01-20T21:20:52Z</time>
      </trkpt>
      <trkpt lat="44.37702" lon="1.08619">
        <ele>242</ele>
        <time>2021-01-20T21:21:31Z</time>
      </trkpt>
      <trkpt lat="44.3765" lon="1.08631">
        <ele>244</ele>
        <time>2021-01-20T21:22:13Z</time>
      </trkpt>
      <trkpt lat="44.37615" lon="1.08659">
        <ele>246</ele>
        <time>2021-01-20T21:22:46Z</time>
      </trkpt>
      <trkpt lat="44.37589" lon="1.08662">
        <ele>248</ele>
        <time>2021-01-20T21:23:07Z</time>
      </trkpt>
      <trkpt lat="44.37556" lon="1.08689">
        <ele>249</ele>
        <time>2021-01-20T21:23:37Z</time>
      </trkpt>
      <trkpt lat="44.37496" lon="1.08762">
        <ele>249</ele>
        <time>2021-01-20T21:24:41Z</time>
      </trkpt>
      <trkpt lat="44.37363" lon="1.08898">
        <ele>246</ele>
        <time>2021-01-20T21:26:53Z</time>
      </trkpt>
      <trkpt lat="44.37335" lon="1.09035">
        <ele>247</ele>
        <time>2021-01-20T21:28:14Z</time>
      </trkpt>
      <trkpt lat="44.37246" lon="1.09241">
        <ele>249</ele>
        <time>2021-01-20T21:30:32Z</time>
      </trkpt>
      <trkpt lat="44.37224" lon="1.09366">
        <ele>250</ele>
        <time>2021-01-20T21:31:46Z</time>
      </trkpt>
      <trkpt lat="44.37224" lon="1.09487">
        <ele>248</ele>
        <time>2021-01-20T21:32:55Z</time>
      </trkpt>
      <trkpt lat="44.3724" lon="1.09557">
        <ele>251</ele>
        <time>2021-01-20T21:33:37Z</time>
      </trkpt>
      <trkpt lat="44.37263" lon="1.09748">
        <ele>256</ele>
        <time>2021-01-20T21:35:28Z</time>
      </trkpt>
      <trkpt lat="44.373" lon="1.09833">
        <ele>258</ele>
        <time>2021-01-20T21:36:25Z</time>
      </trkpt>
      <trkpt lat="44.37324" lon="1.09918">
        <ele>258</ele>
        <time>2021-01-20T21:37:17Z</time>
      </trkpt>
      <trkpt lat="44.37244" lon="1.09985">
        <ele>263</ele>
        <time>2021-01-20T21:38:32Z</time>
      </trkpt>
      <trkpt lat="44.37105" lon="1.10052">
        <ele>270</ele>
        <time>2021-01-20T21:40:30Z</time>
      </trkpt>
      <trkpt lat="44.37042" lon="1.1007">
        <ele>274</ele>
        <time>2021-01-20T21:41:21Z</time>
      </trkpt>
      <trkpt lat="44.36981" lon="1.10143">
        <ele>275</ele>
        <time>2021-01-20T21:42:25Z</time>
      </trkpt>
      <trkpt lat="44.36858" lon="1.10188">
        <ele>284</ele>
        <time>2021-01-20T21:44:07Z</time>
      </trkpt>
      <trkpt lat="44.36893" lon="1.10361">
        <ele>277</ele>
        <time>2021-01-20T21:45:50Z</time>
      </trkpt>
      <trkpt lat="44.36921" lon="1.10495">
        <ele>273</ele>
        <time>2021-01-20T21:47:10Z</time>
      </trkpt>
      <trkpt lat="44.37001" lon="1.10549">
        <ele>272</ele>
        <time>2021-01-20T21:48:21Z</time>
      </trkpt>
      <trkpt lat="44.37016" lon="1.10734">
        <ele>268</ele>
        <time>2021-01-20T21:50:08Z</time>
      </trkpt>
      <trkpt lat="44.37007" lon="1.1081">
        <ele>269</ele>
        <time>2021-01-20T21:50:52Z</time>
      </trkpt>
      <trkpt lat="44.36942" lon="1.10822">
        <ele>263</ele>
        <time>2021-01-20T21:51:44Z</time>
      </trkpt>
      <trkpt lat="44.36908" lon="1.10917">
        <ele>262</ele>
        <time>2021-01-20T21:52:45Z</time>
      </trkpt>
      <trkpt lat="44.36918" lon="1.10981">
        <ele>263</ele>
        <time>2021-01-20T21:53:23Z</time>
      </trkpt>
      <trkpt lat="44.3689" lon="1.10981">
        <ele>259</ele>
        <time>2021-01-20T21:53:45Z</time>
      </trkpt>
      <trkpt lat="44.36853" lon="1.11153">
        <ele>255</ele>
        <time>2021-01-20T21:55:28Z</time>
      </trkpt>
      <trkpt lat="44.36853" lon="1.11217">
        <ele>257</ele>
        <time>2021-01-20T21:56:04Z</time>
      </trkpt>
      <trkpt lat="44.3681" lon="1.11239">
        <ele>251</ele>
        <time>2021-01-20T21:56:41Z</time>
      </trkpt>
      <trkpt lat="44.36783" lon="1.1123">
        <ele>247</ele>
        <time>2021-01-20T21:57:03Z</time>
      </trkpt>
      <trkpt lat="44.36777" lon="1.11273">
        <ele>247</ele>
        <time>2021-01-20T21:57:28Z</time>
      </trkpt>
      <trkpt lat="44.36734" lon="1.11316">
        <ele>244</ele>
        <time>2021-01-20T21:58:11Z</time>
      </trkpt>
      <trkpt lat="44.36681" lon="1.11419">
        <ele>246</ele>
        <time>2021-01-20T21:59:23Z</time>
      </trkpt>
      <trkpt lat="44.3666" lon="1.11505">
        <ele>247</ele>
        <time>2021-01-20T22:00:15Z</time>
      </trkpt>
      <trkpt lat="44.36648" lon="1.11616">
        <ele>254</ele>
        <time>2021-01-20T22:01:20Z</time>
      </trkpt>
      <trkpt lat="44.36678" lon="1.11681">
        <ele>256</ele>
        <time>2021-01-20T22:02:04Z</time>
      </trkpt>
      <trkpt lat="44.36881" lon="1.11664">
        <ele>260</ele>
        <time>2021-01-20T22:04:47Z</time>
      </trkpt>
      <trkpt lat="44.36918" lon="1.11784">
        <ele>256</ele>
        <time>2021-01-20T22:06:02Z</time>
      </trkpt>
      <trkpt lat="44.36985" lon="1.11865">
        <ele>257</ele>
        <time>2021-01-20T22:07:12Z</time>
      </trkpt>
      <trkpt lat="44.37019" lon="1.11985">
        <ele>253</ele>
        <time>2021-01-20T22:08:26Z</time>
      </trkpt>
      <trkpt lat="44.37034" lon="1.1205">
        <ele>250</ele>
        <time>2021-01-20T22:09:05Z</time>
      </trkpt>
      <trkpt lat="44.37074" lon="1.11985">
        <ele>252</ele>
        <time>2021-01-20T22:09:55Z</time>
      </trkpt>
      <trkpt lat="44.37172" lon="1.12114">
        <ele>256</ele>
        <time>2021-01-20T22:11:42Z</time>
      </trkpt>
      <trkpt lat="44.37243" lon="1.12204">
        <ele>266</ele>
        <time>2021-01-20T22:12:59Z</time>
      </trkpt>
      <trkpt lat="44.37258" lon="1.12346">
        <ele>267</ele>
        <time>2021-01-20T22:14:21Z</time>
      </trkpt>
      <trkpt lat="44.3728" lon="1.12539">
        <ele>265</ele>
        <time>2021-01-20T22:16:13Z</time>
      </trkpt>
      <trkpt lat="44.37301" lon="1.12681">
        <ele>266</ele>
        <time>2021-01-20T22:17:36Z</time>
      </trkpt>
      <trkpt lat="44.37292" lon="1.12827">
        <ele>269</ele>
        <time>2021-01-20T22:19:00Z</time>
      </trkpt>
      <trkpt lat="44.37261" lon="1.12951">
        <ele>274</ele>
        <time>2021-01-20T22:20:15Z</time>
      </trkpt>
      <trkpt lat="44.37215" lon="1.13084">
        <ele>271</ele>
        <time>2021-01-20T22:21:40Z</time>
      </trkpt>
      <trkpt lat="44.37335" lon="1.12998">
        <ele>272</ele>
        <time>2021-01-20T22:23:28Z</time>
      </trkpt>
      <trkpt lat="44.37497" lon="1.12947">
        <ele>265</ele>
        <time>2021-01-20T22:25:40Z</time>
      </trkpt>
      <trkpt lat="44.37574" lon="1.12797">
        <ele>261</ele>
        <time>2021-01-20T22:27:26Z</time>
      </trkpt>
      <trkpt lat="44.37651" lon="1.12719">
        <ele>257</ele>
        <time>2021-01-20T22:28:42Z</time>
      </trkpt>
      <trkpt lat="44.37688" lon="1.12792">
        <ele>255</ele>
        <time>2021-01-20T22:29:34Z</time>
      </trkpt>
      <trkpt lat="44.37703" lon="1.12844">
        <ele>252</ele>
        <time>2021-01-20T22:30:06Z</time>
      </trkpt>
      <trkpt lat="44.37783" lon="1.12719">
        <ele>246</ele>
        <time>2021-01-20T22:31:42Z</time>
      </trkpt>
      <trkpt lat="44.37801" lon="1.12651">
        <ele>245</ele>
        <time>2021-01-20T22:32:23Z</time>
      </trkpt>
      <trkpt lat="44.37807" lon="1.12775">
        <ele>247</ele>
        <time>2021-01-20T22:33:34Z</time>
      </trkpt>
      <trkpt lat="44.37813" lon="1.1287">
        <ele>247</ele>
        <time>2021-01-20T22:34:29Z</time>
      </trkpt>
      <trkpt lat="44.37807" lon="1.12968">
        <ele>248</ele>
        <time>2021-01-20T22:35:25Z</time>
      </trkpt>
      <trkpt lat="44.37801" lon="1.13041">
        <ele>248</ele>
        <time>2021-01-20T22:36:07Z</time>
      </trkpt>
      <trkpt lat="44.37936" lon="1.13093">
        <ele>255</ele>
        <time>2021-01-20T22:37:59Z</time>
      </trkpt>
      <trkpt lat="44.38065" lon="1.13123">
        <ele>264</ele>
        <time>2021-01-20T22:39:44Z</time>
      </trkpt>
      <trkpt lat="44.38065" lon="1.13123">
        <ele>264</ele>
        <time>2021-01-20T22:39:44Z</time>
      </trkpt>
      <trkpt lat="44.38089" lon="1.13063">
        <ele>268</ele>
        <time>2021-01-20T22:40:23Z</time>
      </trkpt>
      <trkpt lat="44.38135" lon="1.13065">
        <ele>269</ele>
        <time>2021-01-20T22:41:00Z</time>
      </trkpt>
      <trkpt lat="44.38145" lon="1.13144">
        <ele>271</ele>
        <time>2021-01-20T22:41:46Z</time>
      </trkpt>
      <trkpt lat="44.38157" lon="1.13166">
        <ele>273</ele>
        <time>2021-01-20T22:42:02Z</time>
      </trkpt>
      <trkpt lat="44.38203" lon="1.13239">
        <ele>279</ele>
        <time>2021-01-20T22:42:58Z</time>
      </trkpt>
      <trkpt lat="44.38338" lon="1.13329">
        <ele>284</ele>
        <time>2021-01-20T22:44:57Z</time>
      </trkpt>
      <trkpt lat="44.38439" lon="1.13277">
        <ele>289</ele>
        <time>2021-01-20T22:46:24Z</time>
      </trkpt>
      <trkpt lat="44.38531" lon="1.13239">
        <ele>291</ele>
        <time>2021-01-20T22:47:40Z</time>
      </trkpt>
      <trkpt lat="44.3854" lon="1.13453">
        <ele>291</ele>
        <time>2021-01-20T22:49:43Z</time>
      </trkpt>
      <trkpt lat="44.38571" lon="1.1359">
        <ele>294</ele>
        <time>2021-01-20T22:51:05Z</time>
      </trkpt>
      <trkpt lat="44.38599" lon="1.13732">
        <ele>292</ele>
        <time>2021-01-20T22:52:30Z</time>
      </trkpt>
      <trkpt lat="44.3862" lon="1.13792">
        <ele>289</ele>
        <time>2021-01-20T22:53:08Z</time>
      </trkpt>
      <trkpt lat="44.38721" lon="1.13899">
        <ele>288</ele>
        <time>2021-01-20T22:54:49Z</time>
      </trkpt>
      <trkpt lat="44.38829" lon="1.13938">
        <ele>286</ele>
        <time>2021-01-20T22:56:19Z</time>
      </trkpt>
      <trkpt lat="44.38841" lon="1.14067">
        <ele>288</ele>
        <time>2021-01-20T22:57:33Z</time>
      </trkpt>
      <trkpt lat="44.38875" lon="1.14221">
        <ele>289</ele>
        <time>2021-01-20T22:59:05Z</time>
      </trkpt>
      <trkpt lat="44.38865" lon="1.14372">
        <ele>289</ele>
        <time>2021-01-20T23:00:32Z</time>
      </trkpt>
      <trkpt lat="44.38865" lon="1.1447">
        <ele>289</ele>
        <time>2021-01-20T23:01:28Z</time>
      </trkpt>
      <trkpt lat="44.38865" lon="1.14573">
        <ele>289</ele>
        <time>2021-01-20T23:02:27Z</time>
      </trkpt>
      <trkpt lat="44.38887" lon="1.14612">
        <ele>290</ele>
        <time>2021-01-20T23:02:55Z</time>
      </trkpt>
      <trkpt lat="44.38942" lon="1.14638">
        <ele>291</ele>
        <time>2021-01-20T23:03:42Z</time>
      </trkpt>
      <trkpt lat="44.38957" lon="1.14771">
        <ele>288</ele>
        <time>2021-01-20T23:04:59Z</time>
      </trkpt>
      <trkpt lat="44.38964" lon="1.14874">
        <ele>287</ele>
        <time>2021-01-20T23:05:58Z</time>
      </trkpt>
      <trkpt lat="44.3897" lon="1.14998">
        <ele>285</ele>
        <time>2021-01-20T23:07:09Z</time>
      </trkpt>
      <trkpt lat="44.38829" lon="1.15453">
        <ele>264</ele>
        <time>2021-01-20T23:11:53Z</time>
      </trkpt>
      <trkpt lat="44.38715" lon="1.15685">
        <ele>256</ele>
        <time>2021-01-20T23:14:34Z</time>
      </trkpt>
      <trkpt lat="44.38642" lon="1.15835">
        <ele>249</ele>
        <time>2021-01-20T23:16:18Z</time>
      </trkpt>
      <trkpt lat="44.38626" lon="1.15916">
        <ele>250</ele>
        <time>2021-01-20T23:17:06Z</time>
      </trkpt>
      <trkpt lat="44.38697" lon="1.16015">
        <ele>258</ele>
        <time>2021-01-20T23:18:26Z</time>
      </trkpt>
      <trkpt lat="44.38807" lon="1.1617">
        <ele>264</ele>
        <time>2021-01-20T23:20:31Z</time>
      </trkpt>
      <trkpt lat="44.38985" lon="1.16333">
        <ele>261</ele>
        <time>2021-01-20T23:23:22Z</time>
      </trkpt>
      <trkpt lat="44.39123" lon="1.16376">
        <ele>260</ele>
        <time>2021-01-20T23:25:15Z</time>
      </trkpt>
      <trkpt lat="44.39194" lon="1.16565">
        <ele>264</ele>
        <time>2021-01-20T23:27:17Z</time>
      </trkpt>
      <trkpt lat="44.39307" lon="1.16668">
        <ele>270</ele>
        <time>2021-01-20T23:29:05Z</time>
      </trkpt>
      <trkpt lat="44.39488" lon="1.16492">
        <ele>281</ele>
        <time>2021-01-20T23:32:01Z</time>
      </trkpt>
      <trkpt lat="44.39604" lon="1.16384">
        <ele>282</ele>
        <time>2021-01-20T23:33:53Z</time>
      </trkpt>
      <trkpt lat="44.39672" lon="1.1632">
        <ele>280</ele>
        <time>2021-01-20T23:34:59Z</time>
      </trkpt>
      <trkpt lat="44.39712" lon="1.16294">
        <ele>277</ele>
        <time>2021-01-20T23:35:34Z</time>
      </trkpt>
      <trkpt lat="44.39724" lon="1.16251">
        <ele>277</ele>
        <time>2021-01-20T23:36:00Z</time>
      </trkpt>
      <trkpt lat="44.39779" lon="1.16213">
        <ele>272</ele>
        <time>2021-01-20T23:36:49Z</time>
      </trkpt>
      <trkpt lat="44.39905" lon="1.16217">
        <ele>260</ele>
        <time>2021-01-20T23:38:30Z</time>
      </trkpt>
      <trkpt lat="44.40043" lon="1.16118">
        <ele>243</ele>
        <time>2021-01-20T23:40:34Z</time>
      </trkpt>
      <trkpt lat="44.40193" lon="1.16084">
        <ele>221</ele>
        <time>2021-01-20T23:42:36Z</time>
      </trkpt>
      <trkpt lat="44.40202" lon="1.16127">
        <ele>216</ele>
        <time>2021-01-20T23:43:02Z</time>
      </trkpt>
      <trkpt lat="44.40196" lon="1.16183">
        <ele>217</ele>
        <time>2021-01-20T23:43:34Z</time>
      </trkpt>
      <trkpt lat="44.40144" lon="1.16225">
        <ele>227</ele>
        <time>2021-01-20T23:44:22Z</time>
      </trkpt>
      <trkpt lat="44.40086" lon="1.16324">
        <ele>235</ele>
        <time>2021-01-20T23:45:35Z</time>
      </trkpt>
      <trkpt lat="44.4004" lon="1.16419">
        <ele>248</ele>
        <time>2021-01-20T23:46:41Z</time>
      </trkpt>
      <trkpt lat="44.40025" lon="1.165">
        <ele>255</ele>
        <time>2021-01-20T23:47:29Z</time>
      </trkpt>
      <trkpt lat="44.40043" lon="1.16603">
        <ele>263</ele>
        <time>2021-01-20T23:48:30Z</time>
      </trkpt>
      <trkpt lat="44.40083" lon="1.16762">
        <ele>267</ele>
        <time>2021-01-20T23:50:06Z</time>
      </trkpt>
      <trkpt lat="44.40095" lon="1.16843">
        <ele>269</ele>
        <time>2021-01-20T23:50:53Z</time>
      </trkpt>
      <trkpt lat="44.40126" lon="1.16912">
        <ele>271</ele>
        <time>2021-01-20T23:51:40Z</time>
      </trkpt>
      <trkpt lat="44.4027" lon="1.16843">
        <ele>272</ele>
        <time>2021-01-20T23:53:42Z</time>
      </trkpt>
      <trkpt lat="44.40374" lon="1.16779">
        <ele>269</ele>
        <time>2021-01-20T23:55:13Z</time>
      </trkpt>
      <trkpt lat="44.40399" lon="1.16865">
        <ele>270</ele>
        <time>2021-01-20T23:56:06Z</time>
      </trkpt>
      <trkpt lat="44.40442" lon="1.16899">
        <ele>271</ele>
        <time>2021-01-20T23:56:46Z</time>
      </trkpt>
      <trkpt lat="44.40544" lon="1.1683">
        <ele>268</ele>
        <time>2021-01-20T23:58:16Z</time>
      </trkpt>
      <trkpt lat="44.40679" lon="1.16802">
        <ele>254</ele>
        <time>2021-01-21T00:00:05Z</time>
      </trkpt>
      <trkpt lat="44.40828" lon="1.16509">
        <ele>215</ele>
        <time>2021-01-21T00:03:31Z</time>
      </trkpt>
      <trkpt lat="44.40978" lon="1.16251">
        <ele>201</ele>
        <time>2021-01-21T00:06:41Z</time>
      </trkpt>
      <trkpt lat="44.41177" lon="1.16178">
        <ele>195</ele>
        <time>2021-01-21T00:09:26Z</time>
      </trkpt>
      <trkpt lat="44.41364" lon="1.16221">
        <ele>185</ele>
        <time>2021-01-21T00:11:58Z</time>
      </trkpt>
      <trkpt lat="44.41493" lon="1.16161">
        <ele>186</ele>
        <time>2021-01-21T00:13:47Z</time>
      </trkpt>
      <trkpt lat="44.41579" lon="1.16054">
        <ele>187</ele>
        <time>2021-01-21T00:15:19Z</time>
      </trkpt>
      <trkpt lat="44.41671" lon="1.15942">
        <ele>177</ele>
        <time>2021-01-21T00:16:57Z</time>
      </trkpt>
      <trkpt lat="44.41683" lon="1.15912">
        <ele>175</ele>
        <time>2021-01-21T00:17:16Z</time>
      </trkpt>
      <trkpt lat="44.41668" lon="1.15852">
        <ele>174</ele>
        <time>2021-01-21T00:17:53Z</time>
      </trkpt>
      <trkpt lat="44.41668" lon="1.15852">
        <ele>174</ele>
        <time>2021-01-21T00:17:53Z</time>
      </trkpt>
    </trkseg>
  </trk>
</gpx>